createdAt,value
2022-08-26T00:01:41.561Z,8.27
2022-08-26T00:04:10.945Z,5.20
2022-08-26T00:06:37.772Z,7.00
2022-08-26T00:09:09.770Z,7.70
2022-08-26T00:11:36.595Z,6.03
2022-08-26T00:14:03.407Z,9.65
2022-08-26T00:16:31.251Z,7.63
2022-08-26T00:18:58.139Z,8.32
2022-08-26T00:21:24.956Z,7.05
2022-08-26T00:23:51.665Z,6.78
2022-08-26T00:26:18.607Z,7.50
2022-08-26T00:28:47.563Z,9.80
2022-08-26T00:31:14.804Z,10.50
2022-08-26T00:33:41.839Z,8.43
2022-08-26T00:36:19.860Z,11.93
2022-08-26T00:38:47.941Z,9.63
2022-08-26T00:41:14.819Z,8.55
2022-08-26T00:43:46.245Z,9.13
2022-08-26T00:46:19.741Z,8.77
2022-08-26T00:48:49.515Z,9.77
2022-08-26T00:51:20.395Z,8.52
2022-08-26T00:53:54.648Z,6.30
2022-08-26T00:56:42.072Z,9.98
2022-08-26T00:59:11.782Z,10.93
2022-08-26T01:01:41.230Z,10.00
2022-08-26T01:04:10.147Z,8.40
2022-08-26T01:06:37.386Z,9.80
2022-08-26T01:09:04.751Z,10.18
2022-08-26T01:11:32.626Z,8.10
2022-08-26T01:14:03.517Z,7.45
2022-08-26T01:16:30.546Z,6.97
2022-08-26T01:19:02.921Z,7.13
2022-08-26T01:21:46.697Z,7.55
2022-08-26T01:24:15.632Z,7.60
2022-08-26T01:26:44.610Z,9.82
2022-08-26T01:29:18.926Z,7.25
2022-08-26T01:31:52.573Z,11.32
2022-08-26T01:34:25.279Z,7.82
2022-08-26T01:36:58.782Z,9.07
2022-08-26T01:39:25.639Z,11.25
2022-08-26T01:41:55.747Z,9.52
2022-08-26T01:44:26.602Z,9.98
2022-08-26T01:46:54.991Z,14.33
2022-08-26T01:49:23.134Z,8.00
2022-08-26T01:51:55.076Z,8.50
2022-08-26T01:54:23.240Z,10.23
2022-08-26T01:56:51.576Z,9.15
2022-08-26T01:59:20.354Z,8.18
2022-08-26T02:01:48.644Z,8.80
2022-08-26T02:04:30.903Z,7.40
2022-08-26T02:06:58.343Z,9.88
2022-08-26T02:09:25.868Z,8.52
2022-08-26T02:11:54.300Z,7.47
2022-08-26T02:14:28.660Z,5.95
2022-08-26T02:16:56.105Z,7.20
2022-08-26T02:19:28.631Z,7.75
2022-08-26T02:21:58.607Z,12.57
2022-08-26T02:24:28.290Z,11.77
2022-08-26T02:26:58.850Z,9.73
2022-08-26T02:29:32.998Z,10.15
2022-08-26T02:31:59.931Z,12.32
2022-08-26T02:34:31.871Z,10.05
2022-08-26T02:37:05.366Z,9.05
2022-08-26T02:39:33.370Z,11.98
2022-08-26T02:42:00.305Z,10.82
2022-08-26T02:44:27.751Z,11.85
2022-08-26T02:46:54.952Z,12.10
2022-08-26T02:49:23.642Z,9.88
2022-08-26T02:51:51.176Z,10.48
2022-08-26T02:54:21.263Z,11.00
2022-08-26T02:56:48.723Z,9.52
2022-08-26T02:59:15.471Z,11.77
2022-08-26T03:01:44.246Z,10.80
2022-08-26T03:04:12.387Z,7.70
2022-08-26T03:06:39.316Z,8.18
2022-08-26T03:09:09.084Z,8.63
2022-08-26T03:11:36.676Z,5.72
2022-08-26T03:14:04.326Z,6.55
2022-08-26T03:16:33.532Z,5.72
2022-08-26T03:19:02.893Z,6.40
2022-08-26T03:21:30.718Z,6.90
2022-08-26T03:23:58.501Z,6.70
2022-08-26T03:26:26.068Z,5.60
2022-08-26T03:29:11.641Z,6.13
2022-08-26T03:31:38.417Z,6.30
2022-08-26T03:34:05.906Z,10.27
2022-08-26T03:36:32.947Z,10.68
2022-08-26T03:39:02.046Z,14.60
2022-08-26T03:41:30.024Z,11.27
2022-08-26T03:44:01.050Z,10.13
2022-08-26T03:48:55.499Z,8.73
2022-08-26T03:51:22.175Z,8.80
2022-08-26T03:53:51.049Z,10.07
2022-08-26T03:56:17.945Z,8.57
2022-08-26T03:58:44.656Z,8.45
2022-08-26T04:01:16.213Z,7.88
2022-08-26T04:04:00.007Z,7.25
2022-08-26T04:06:36.889Z,10.10
2022-08-26T04:09:07.120Z,8.05
2022-08-26T04:11:37.795Z,8.57
2022-08-26T04:14:14.243Z,10.55
2022-08-26T04:16:45.047Z,8.35
2022-08-26T04:19:13.866Z,12.43
2022-08-26T04:21:41.548Z,13.82
2022-08-26T04:24:12.200Z,12.52
2022-08-26T04:26:42.786Z,16.45
2022-08-26T04:29:19.267Z,10.00
2022-08-26T04:31:47.972Z,8.43
2022-08-26T04:34:15.850Z,9.07
2022-08-26T04:36:43.426Z,11.55
2022-08-26T04:39:12.296Z,10.02
2022-08-26T04:41:40.079Z,9.10
2022-08-26T04:44:06.886Z,12.65
2022-08-26T04:46:33.824Z,16.50
2022-08-26T04:49:00.554Z,16.13
2022-08-26T04:51:28.150Z,12.63
2022-08-26T04:53:56.996Z,10.13
2022-08-26T04:56:30.136Z,13.27
2022-08-26T04:58:57.253Z,12.93
2022-08-26T05:01:25.102Z,11.43
2022-08-26T05:03:52.625Z,11.80
2022-08-26T05:06:20.503Z,10.98
2022-08-26T05:08:48.749Z,12.77
2022-08-26T05:11:15.461Z,10.15
2022-08-26T05:13:42.633Z,11.70
2022-08-26T05:16:12.011Z,13.52
2022-08-26T05:18:40.269Z,15.80
2022-08-26T05:21:07.517Z,11.05
2022-08-26T05:23:36.251Z,9.82
2022-08-26T05:26:08.218Z,15.20
2022-08-26T05:28:35.230Z,15.52
2022-08-26T05:31:10.483Z,11.40
2022-08-26T05:33:37.275Z,9.25
2022-08-26T05:36:11.856Z,10.70
2022-08-26T05:38:40.077Z,9.43
2022-08-26T05:41:18.747Z,9.60
2022-08-26T05:43:46.121Z,9.27
2022-08-26T05:46:13.055Z,9.40
2022-08-26T05:48:40.124Z,10.85
2022-08-26T05:51:12.103Z,8.98
2022-08-26T05:53:40.615Z,11.32
2022-08-26T05:56:12.256Z,10.20
2022-08-26T05:58:41.338Z,11.40
2022-08-26T06:01:18.374Z,13.65
2022-08-26T06:03:48.994Z,13.25
2022-08-26T06:06:20.778Z,11.98
2022-08-26T06:08:54.534Z,12.10
2022-08-26T06:11:26.563Z,15.98
2022-08-26T06:13:57.978Z,13.20
2022-08-26T06:16:29.003Z,15.55
2022-08-26T06:18:56.355Z,12.20
2022-08-26T06:21:53.962Z,13.10
2022-08-26T06:24:40.187Z,14.07
2022-08-26T06:27:09.873Z,13.52
2022-08-26T06:29:38.378Z,17.83
2022-08-26T06:32:05.580Z,13.50
2022-08-26T06:34:32.919Z,19.15
2022-08-26T06:37:02.705Z,14.40
2022-08-26T06:39:31.370Z,23.23
2022-08-26T06:41:59.378Z,21.45
2022-08-26T06:44:26.709Z,18.00
2022-08-26T06:46:53.515Z,21.55
2022-08-26T06:49:27.161Z,37.95
2022-08-26T06:51:57.888Z,32.28
2022-08-26T06:54:25.103Z,54.03
2022-08-26T06:56:52.239Z,55.25
2022-08-26T06:59:21.006Z,34.25
2022-08-26T07:01:47.811Z,48.42
2022-08-26T07:04:21.758Z,38.90
2022-08-26T07:06:50.315Z,48.80
2022-08-26T07:09:21.427Z,34.60
2022-08-26T07:11:49.198Z,27.70
2022-08-26T07:14:16.761Z,36.05
2022-08-26T07:16:47.340Z,64.13
2022-08-26T07:19:14.293Z,50.70
2022-08-26T07:21:41.920Z,42.08
2022-08-26T07:24:11.008Z,62.80
2022-08-26T07:26:39.068Z,54.20
2022-08-26T07:29:12.271Z,48.80
2022-08-26T07:31:42.229Z,69.28
2022-08-26T07:34:10.726Z,64.53
2022-08-26T07:36:37.847Z,47.72
2022-08-26T07:39:05.535Z,55.83
2022-08-26T07:41:32.579Z,48.92
2022-08-26T07:43:59.396Z,47.45
2022-08-26T07:46:27.534Z,62.85
2022-08-26T07:48:57.811Z,30.52
2022-08-26T07:51:26.031Z,45.30
2022-08-26T07:53:54.590Z,62.20
2022-08-26T07:56:23.297Z,54.78
2022-08-26T07:58:53.736Z,61.53
2022-08-26T08:01:23.529Z,73.10
2022-08-26T08:03:52.271Z,60.30
2022-08-26T08:06:27.162Z,75.38
2022-08-26T08:08:54.451Z,49.63
2022-08-26T08:11:21.516Z,71.03
2022-08-26T08:13:49.754Z,61.30
2022-08-26T08:16:24.202Z,43.45
2022-08-26T08:18:51.448Z,38.25
2022-08-26T08:21:21.860Z,54.47
2022-08-26T08:23:51.933Z,76.32
2022-08-26T08:26:18.720Z,58.60
2022-08-26T08:28:46.287Z,73.60
2022-08-26T08:31:56.169Z,68.68
2022-08-26T08:34:15.166Z,82.07
2022-08-26T08:36:41.944Z,72.00
2022-08-26T08:39:09.470Z,65.55
2022-08-26T08:41:48.386Z,67.03
2022-08-26T08:44:20.977Z,71.45
2022-08-26T08:46:55.719Z,59.50
2022-08-26T08:49:25.895Z,51.72
2022-08-26T08:52:00.258Z,64.65
2022-08-26T08:54:28.999Z,69.68
2022-08-26T08:57:12.494Z,73.60
2022-08-26T08:59:51.992Z,75.28
2022-08-26T09:02:28.625Z,81.03
2022-08-26T09:05:05.469Z,71.32
2022-08-26T09:07:43.199Z,59.50
2022-08-26T09:12:52.589Z,59.58
2022-08-26T09:15:30.182Z,84.70
2022-08-26T09:18:05.604Z,72.22
2022-08-26T09:20:41.023Z,71.82
2022-08-26T09:23:10.608Z,51.95
2022-08-26T09:25:56.157Z,68.60
2022-08-26T09:28:25.110Z,63.50
2022-08-26T09:31:20.904Z,69.43
2022-08-26T09:33:48.131Z,75.78
2022-08-26T09:36:39.056Z,78.32
2022-08-26T09:39:25.847Z,61.83
2022-08-26T09:42:12.880Z,76.75
2022-08-26T09:45:10.387Z,65.70
2022-08-26T09:47:46.293Z,70.68
2022-08-26T09:50:29.967Z,73.90
2022-08-26T09:53:12.820Z,65.13
2022-08-26T09:55:41.973Z,62.90
2022-08-26T09:58:14.592Z,69.50
2022-08-26T10:00:52.710Z,63.70
2022-08-26T10:03:31.491Z,34.25
2022-08-26T10:06:02.592Z,62.15
2022-08-26T10:08:42.102Z,34.78
2022-08-26T10:11:44.824Z,62.28
2022-08-26T10:14:21.031Z,42.47
2022-08-26T10:16:54.671Z,55.92
2022-08-26T10:19:41.711Z,57.40
2022-08-26T10:22:39.051Z,54.38
2022-08-26T10:25:11.945Z,64.93
2022-08-26T10:28:00.006Z,61.63
2022-08-26T10:30:46.809Z,56.65
2022-08-26T10:33:15.517Z,50.45
2022-08-26T10:38:22.008Z,50.05
2022-08-26T10:40:55.086Z,50.13
2022-08-26T10:43:33.768Z,50.20
2022-08-26T10:46:08.331Z,52.03
2022-08-26T10:48:47.020Z,45.67
2022-08-26T10:51:18.616Z,53.72
2022-08-26T10:54:27.783Z,49.13
2022-08-26T10:57:24.907Z,47.35
2022-08-26T11:00:27.909Z,51.22
2022-08-26T11:03:03.202Z,52.85
2022-08-26T11:05:30.246Z,37.67
2022-08-26T11:08:19.360Z,42.08
2022-08-26T11:10:59.319Z,36.60
2022-08-26T11:14:05.196Z,41.13
2022-08-26T11:16:44.203Z,40.00
2022-08-26T11:19:57.092Z,39.42
2022-08-26T11:22:29.251Z,38.25
2022-08-26T11:24:55.908Z,30.85
2022-08-26T11:27:25.908Z,33.50
2022-08-26T11:30:00.235Z,34.45
2022-08-26T11:32:48.754Z,31.90
2022-08-26T11:35:21.682Z,36.00
2022-08-26T11:37:48.459Z,36.88
2022-08-26T11:40:22.337Z,32.65
2022-08-26T11:42:59.755Z,34.75
2022-08-26T11:45:39.331Z,36.85
2022-08-26T11:48:21.052Z,35.58
2022-08-26T11:51:00.499Z,38.92
2022-08-26T11:53:28.638Z,30.17
2022-08-26T11:55:59.412Z,32.40
2022-08-26T11:58:27.980Z,34.60
2022-08-26T12:01:09.605Z,35.88
2022-08-26T12:03:48.299Z,36.55
2022-08-26T12:06:45.825Z,33.58
2022-08-26T12:09:28.332Z,35.50
2022-08-26T12:12:16.600Z,34.97
2022-08-26T12:14:43.798Z,32.40
2022-08-26T12:17:27.556Z,34.97
2022-08-26T12:19:54.288Z,36.58
2022-08-26T12:22:31.197Z,34.75
2022-08-26T12:24:59.832Z,39.70
2022-08-26T12:27:31.310Z,38.15
2022-08-26T12:32:57.239Z,35.35
2022-08-26T12:35:25.398Z,35.70
2022-08-26T12:37:53.789Z,31.67
2022-08-26T12:40:43.780Z,32.58
2022-08-26T12:43:12.827Z,35.25
2022-08-26T12:46:00.512Z,32.85
2022-08-26T12:48:30.681Z,34.15
2022-08-26T12:50:58.360Z,31.63
2022-08-26T12:53:31.172Z,32.22
2022-08-26T12:56:30.252Z,30.67
2022-08-26T12:59:23.039Z,33.20
2022-08-26T13:01:50.614Z,32.10
2022-08-26T13:04:41.789Z,32.28
2022-08-26T13:07:26.103Z,30.98
2022-08-26T13:09:59.058Z,33.83
2022-08-26T13:12:27.143Z,31.00
2022-08-26T13:14:54.379Z,36.78
2022-08-26T13:17:21.332Z,36.13
2022-08-26T13:19:48.231Z,33.95
2022-08-26T13:22:24.238Z,30.60
2022-08-26T13:24:54.782Z,32.30
2022-08-26T13:27:23.579Z,32.88
2022-08-26T13:29:51.189Z,32.88
2022-08-26T13:32:20.326Z,33.53
2022-08-26T13:34:51.377Z,37.67
2022-08-26T13:39:56.297Z,35.85
2022-08-26T13:42:23.075Z,37.55
2022-08-26T13:44:51.638Z,36.28
2022-08-26T13:47:20.481Z,34.90
2022-08-26T13:49:47.169Z,32.75
2022-08-26T13:52:14.245Z,31.27
2022-08-26T13:54:41.237Z,32.90
2022-08-26T13:57:08.007Z,33.38
2022-08-26T13:59:34.715Z,30.45
2022-08-26T14:02:03.940Z,29.95
2022-08-26T14:04:30.608Z,34.58
2022-08-26T14:06:57.372Z,32.72
2022-08-26T14:09:24.458Z,31.70
2022-08-26T14:11:54.389Z,33.90
2022-08-26T14:14:22.103Z,33.58
2022-08-26T14:16:58.895Z,34.05
2022-08-26T14:19:26.943Z,31.15
2022-08-26T14:21:53.644Z,17.52
2022-08-26T14:24:20.294Z,16.17
2022-08-26T14:26:48.436Z,20.23
2022-08-26T14:29:17.762Z,20.55
2022-08-26T14:31:44.625Z,18.67
2022-08-26T14:34:13.783Z,20.83
2022-08-26T14:36:40.555Z,19.83
2022-08-26T14:39:10.443Z,19.00
2022-08-26T14:41:54.596Z,20.90
2022-08-26T14:44:25.420Z,21.75
2022-08-26T14:46:53.200Z,20.27
2022-08-26T14:49:21.580Z,19.33
2022-08-26T14:51:48.281Z,19.35
2022-08-26T14:54:16.986Z,21.17
2022-08-26T14:56:50.106Z,21.73
2022-08-26T14:59:20.785Z,18.58
2022-08-26T15:01:48.110Z,18.88
2022-08-26T15:04:15.598Z,19.50
2022-08-26T15:06:42.410Z,17.17
2022-08-26T15:09:10.022Z,18.33
2022-08-26T15:11:36.833Z,17.50
2022-08-26T15:14:03.939Z,15.40
2022-08-26T15:16:31.369Z,18.80
2022-08-26T15:19:00.608Z,16.63
2022-08-26T15:21:27.347Z,15.32
2022-08-26T15:23:54.756Z,19.63
2022-08-26T15:26:23.080Z,16.88
2022-08-26T15:28:50.966Z,19.45
2022-08-26T15:31:18.787Z,15.95
2022-08-26T15:33:45.914Z,17.90
2022-08-26T15:36:12.697Z,15.25
2022-08-26T15:38:42.182Z,15.13
2022-08-26T15:41:10.178Z,15.90
2022-08-26T15:43:38.200Z,18.63
2022-08-26T15:46:05.079Z,19.42
2022-08-26T15:48:31.852Z,22.70
2022-08-26T15:51:00.882Z,19.67
2022-08-26T15:53:31.197Z,18.80
2022-08-26T15:55:59.532Z,22.85
2022-08-26T15:58:28.199Z,22.60
2022-08-26T16:00:56.291Z,15.25
2022-08-26T16:03:23.421Z,19.77
2022-08-26T16:05:50.502Z,20.65
2022-08-26T16:08:17.424Z,16.02
2022-08-26T16:10:50.329Z,18.73
2022-08-26T16:13:19.828Z,17.60
2022-08-26T16:15:48.050Z,19.13
2022-08-26T16:18:15.757Z,20.30
2022-08-26T16:21:08.779Z,18.30
2022-08-26T16:23:39.173Z,14.82
2022-08-26T16:26:16.398Z,14.48
2022-08-26T16:28:43.638Z,14.40
2022-08-26T16:31:11.010Z,16.13
2022-08-26T16:33:38.031Z,13.30
2022-08-26T16:36:06.434Z,15.38
2022-08-26T16:38:33.692Z,16.27
2022-08-26T16:41:01.242Z,15.57
2022-08-26T16:43:28.637Z,20.77
2022-08-26T16:45:55.903Z,15.60
2022-08-26T16:48:23.694Z,15.93
2022-08-26T16:50:51.067Z,14.38
2022-08-26T16:53:18.755Z,13.80
2022-08-26T16:55:47.220Z,14.57
2022-08-26T16:58:14.728Z,10.38
2022-08-26T17:00:41.421Z,12.90
2022-08-26T17:03:08.495Z,15.95
2022-08-26T17:05:36.195Z,14.98
2022-08-26T17:08:04.383Z,16.60
2022-08-26T17:10:32.719Z,14.32
2022-08-26T17:12:59.677Z,13.77
2022-08-26T17:15:26.820Z,11.93
2022-08-26T17:17:54.304Z,12.75
2022-08-26T17:20:22.790Z,14.13
2022-08-26T17:22:51.757Z,17.02
2022-08-26T17:25:31.605Z,12.13
2022-08-26T17:27:59.255Z,12.90
2022-08-26T17:30:26.363Z,14.48
2022-08-26T17:32:54.282Z,11.95
2022-08-26T17:35:21.751Z,13.27
2022-08-26T17:37:48.505Z,18.02
2022-08-26T17:40:19.516Z,12.40
2022-08-26T17:42:46.824Z,16.38
2022-08-26T17:45:16.588Z,14.82
2022-08-26T17:47:44.019Z,15.65
2022-08-26T17:50:14.541Z,11.50
2022-08-26T17:52:42.614Z,14.30
2022-08-26T17:55:11.167Z,16.70
2022-08-26T17:57:40.535Z,12.38
2022-08-26T18:00:16.063Z,12.25
2022-08-26T18:02:43.075Z,13.93
2022-08-26T18:05:12.813Z,12.77
2022-08-26T18:07:44.014Z,11.07
2022-08-26T18:10:13.820Z,14.20
2022-08-26T18:12:41.498Z,12.32
2022-08-26T18:15:09.979Z,13.25
2022-08-26T18:17:38.983Z,12.77
2022-08-26T18:20:08.690Z,13.55
2022-08-26T18:22:35.446Z,15.02
2022-08-26T18:25:02.898Z,17.83
2022-08-26T18:27:29.605Z,13.57
2022-08-26T18:29:56.903Z,17.45
2022-08-26T18:32:23.844Z,14.30
2022-08-26T18:34:50.566Z,14.80
2022-08-26T18:37:17.287Z,12.07
2022-08-26T18:39:44.037Z,16.50
2022-08-26T18:42:10.796Z,18.23
2022-08-26T18:44:37.504Z,9.75
2022-08-26T18:47:04.721Z,13.63
2022-08-26T18:49:31.569Z,11.85
2022-08-26T18:51:58.297Z,8.95
2022-08-26T18:54:25.670Z,15.30
2022-08-26T18:56:52.441Z,10.27
2022-08-26T18:59:19.163Z,13.00
2022-08-26T19:01:53.739Z,13.02
2022-08-26T19:04:21.993Z,15.85
2022-08-26T19:06:50.949Z,17.58
2022-08-26T19:09:20.914Z,14.65
2022-08-26T19:11:49.607Z,14.13
2022-08-26T19:14:17.391Z,13.45
2022-08-26T19:16:46.418Z,16.73
2022-08-26T19:19:13.416Z,15.13
2022-08-26T19:21:41.678Z,13.77
2022-08-26T19:24:15.800Z,17.33
2022-08-26T19:26:45.168Z,12.30
2022-08-26T19:29:12.437Z,15.63
2022-08-26T19:31:39.347Z,12.82
2022-08-26T19:34:06.984Z,11.93
2022-08-26T19:36:34.299Z,14.48
2022-08-26T19:39:06.475Z,12.43
2022-08-26T19:41:37.953Z,12.82
2022-08-26T19:44:37.904Z,12.63
2022-08-26T19:47:07.036Z,10.50
2022-08-26T19:49:34.771Z,16.13
2022-08-26T19:52:03.123Z,10.30
2022-08-26T19:54:30.252Z,12.02
2022-08-26T19:56:57.326Z,14.40
2022-08-26T19:59:24.218Z,13.00
2022-08-26T20:02:00.751Z,11.80
2022-08-26T20:04:29.643Z,12.88
2022-08-26T20:06:57.721Z,9.85
2022-08-26T20:09:27.620Z,12.05
2022-08-26T20:11:56.909Z,9.95
2022-08-26T20:14:25.088Z,14.75
2022-08-26T20:16:52.114Z,11.05
2022-08-26T20:19:37.853Z,12.70
2022-08-26T20:22:05.986Z,14.57
2022-08-26T20:24:34.141Z,9.77
2022-08-26T20:27:07.285Z,17.08
2022-08-26T20:29:35.045Z,10.75
2022-08-26T20:32:02.549Z,8.93
2022-08-26T20:34:30.081Z,10.85
2022-08-26T20:36:56.898Z,10.60
2022-08-26T20:39:23.778Z,15.50
2022-08-26T20:41:50.934Z,12.27
2022-08-26T20:44:17.755Z,18.50
2022-08-26T20:46:45.095Z,12.80
2022-08-26T20:49:13.299Z,12.88
2022-08-26T20:51:40.829Z,11.43
2022-08-26T20:54:07.824Z,12.63
2022-08-26T20:56:35.355Z,18.13
2022-08-26T20:59:03.521Z,11.00
2022-08-26T21:01:34.568Z,12.73
2022-08-26T21:04:04.273Z,14.57
2022-08-26T21:06:33.765Z,12.77
2022-08-26T21:09:02.918Z,11.40
2022-08-26T21:11:30.680Z,11.88
2022-08-26T21:14:15.608Z,12.57
2022-08-26T21:16:43.981Z,12.52
2022-08-26T21:19:12.982Z,14.82
2022-08-26T21:21:40.797Z,13.07
2022-08-26T21:24:07.841Z,14.32
2022-08-26T21:26:34.703Z,15.15
2022-08-26T21:29:02.437Z,12.18
2022-08-26T21:31:31.723Z,11.10
2022-08-26T21:33:59.129Z,13.85
2022-08-26T21:36:26.510Z,13.73
2022-08-26T21:38:56.151Z,16.35
2022-08-26T21:41:23.009Z,17.98
2022-08-26T21:43:51.782Z,16.45
2022-08-26T21:46:21.940Z,16.38
2022-08-26T21:48:55.332Z,20.88
2022-08-26T21:51:24.585Z,16.92
2022-08-26T21:53:52.776Z,15.63
2022-08-26T21:56:21.052Z,20.58
2022-08-26T21:58:48.171Z,13.95
2022-08-26T22:01:19.605Z,15.75
2022-08-26T22:06:16.856Z,20.55
2022-08-26T22:08:43.963Z,20.05
2022-08-26T22:11:10.892Z,20.52
2022-08-26T22:13:39.867Z,15.00
2022-08-26T22:16:07.223Z,17.30
2022-08-26T22:18:35.432Z,17.10
2022-08-26T22:21:05.896Z,21.88
2022-08-26T22:23:33.087Z,19.35
2022-08-26T22:26:00.028Z,15.35
2022-08-26T22:28:28.134Z,16.98
2022-08-26T22:30:55.574Z,13.80
2022-08-26T22:33:22.892Z,16.13
2022-08-26T22:35:50.814Z,20.48
2022-08-26T22:38:17.793Z,16.02
2022-08-26T22:40:48.392Z,14.13
2022-08-26T22:43:15.612Z,16.30
2022-08-26T22:45:46.013Z,13.68
2022-08-26T22:48:15.655Z,15.30
2022-08-26T22:50:44.536Z,12.13
2022-08-26T22:53:11.488Z,16.17
2022-08-26T22:55:38.348Z,15.65
2022-08-26T22:58:05.553Z,13.45
2022-08-26T23:00:32.780Z,16.88
2022-08-26T23:03:00.004Z,15.93
2022-08-26T23:05:26.772Z,14.25
2022-08-26T23:07:53.988Z,18.05
2022-08-26T23:10:20.948Z,13.85
2022-08-26T23:12:47.640Z,16.60
2022-08-26T23:15:15.065Z,12.77
2022-08-26T23:17:43.049Z,12.43
2022-08-26T23:20:12.815Z,12.82
2022-08-26T23:22:39.824Z,16.48
2022-08-26T23:25:08.935Z,14.30
2022-08-26T23:27:39.053Z,13.00
2022-08-26T23:30:08.439Z,13.45
2022-08-26T23:32:35.396Z,11.13
2022-08-26T23:35:02.891Z,11.55
2022-08-26T23:37:33.603Z,10.52
2022-08-26T23:40:05.486Z,9.93
2022-08-26T23:42:32.192Z,16.70
2022-08-26T23:44:58.863Z,10.85
2022-08-26T23:47:25.579Z,11.70
2022-08-26T23:49:52.254Z,10.70
2022-08-26T23:52:37.362Z,15.98
2022-08-26T23:55:04.649Z,12.35
2022-08-26T23:57:32.681Z,12.18
2022-08-26T23:59:59.417Z,10.10
